Página principal
METAR-TAF:

METAR-TAF

Aeroportos :

Majuro, Ilhas Marshall

latitude: 07-04N, longitude: 171-17E, altura: 2 m

Observação actual do tempo

O boletim foi feito há 9 horas e 10 minutos, às 06:50 UTC
Vento 9 kt de sudoeste
Temperatura 29°C
Humidade 79%
Pressão 1008 hPa
Visibilidade: 24.1 km
Poucas nuvensa uma altura de 1500 ft
Nuvens dispersasa uma altura de 5000 ft
Nuvens fragmentadasa uma altura de 12000 ft
Nuvens fragmentadasa uma altura de 30000 ft

METAR: PKMJ 230650Z 23009KT 15SM FEW015 SCT050 BKN120 BKN300 29/25 A2978 RMK LAST

Hora: 04:00 (16:00 UTC)

Previsão

O boletim foi feito há 4 horas e 40 minutos, às 11:20 UTC
Previsão válida de 23 às 12 UTC a 24 às 12 UTC
Vento 9 kt de sudoeste
Visibilidade: 10 km
Nuvens dispersasa uma altura de 1500 ft
Nuvens dispersasa uma altura de 5000 ft
Nuvens fragmentadasa uma altura de 12000 ft
aguaceiros nas vizinhanças

TAF: PKMJ 231120Z 2312/2412 23009KT P6SM VCSH SCT015 SCT050 BKN120

Observações e previsões do tempo de mais de 4000 aeroportos (mensagens METAR e TAF).

As estações disponíveis são os pontos amarelos e vermelhos sobre o mapa.

Mova o rato sobre o mapa para ver o nome da estação.

Depois clique no ponto para visualizar as observações e previsões meteorológicas.

Para alterar o mapa : clique nos botões verdes com uma cruz preta para aumentar o zoom; no botão verde com uma pitada de zoom; ou nas setas verdes para mapas adjacentes.


METAR-TAF: